Time;durP1;ratioP1;P1;durP2;ratioP2;P2;SDS_P1;SDS_P2;PMS_P1;PMS_P2;Temp;Humidity;BMP_temperature;BMP_pressure;BME280_temperature;BME280_humidity;BME280_pressure;Samples;Min_cycle;Max_cycle;Signal;HPM_P1;HPM_P2
2023/07/16 00:00:37;;;;;;;4.88;3.28;;;22.20;84.30;;;;;;5119278;27;20108;-69
2023/07/16 00:03:04;;;;;;;6.43;3.90;;;22.20;84.40;;;;;;5121903;27;20093;-70
2023/07/16 00:05:31;;;;;;;5.43;3.75;;;22.20;84.10;;;;;;5103074;27;20047;-71
2023/07/16 00:07:58;;;;;;;5.75;3.33;;;22.20;83.60;;;;;;5118722;27;20051;-69
2023/07/16 00:10:25;;;;;;;5.63;3.17;;;22.20;83.40;;;;;;5119142;27;20079;-70
2023/07/16 00:12:52;;;;;;;5.55;3.10;;;22.20;83.10;;;;;;5118322;27;20097;-69
2023/07/16 00:15:19;;;;;;;4.07;2.88;;;22.20;83.10;;;;;;5115732;27;20043;-71
2023/07/16 00:17:47;;;;;;;5.47;3.03;;;22.10;83.10;;;;;;5117317;27;20806;-71
2023/07/16 00:20:14;;;;;;;4.63;2.90;;;22.10;82.90;;;;;;5118342;27;20051;-70
2023/07/16 00:22:41;;;;;;;4.65;2.70;;;22.20;82.50;;;;;;5119690;27;20112;-71
2023/07/16 00:25:09;;;;;;;6.35;3.05;;;22.20;82.60;;;;;;5118903;27;20040;-71
2023/07/16 00:27:36;;;;;;;4.65;2.88;;;22.20;82.10;;;;;;5118887;27;20485;-71
2023/07/16 00:30:03;;;;;;;4.93;2.60;;;22.20;82.40;;;;;;5120213;27;20064;-71
2023/07/16 00:32:30;;;;;;;3.70;2.38;;;22.10;82.70;;;;;;5120376;27;20043;-71
2023/07/16 00:34:59;;;;;;;4.05;2.30;;;22.10;83.10;;;;;;5099832;27;20402;-71
2023/07/16 00:37:25;;;;;;;4.20;2.40;;;22.00;83.30;;;;;;5121320;27;20429;-70
2023/07/16 00:39:52;;;;;;;4.60;2.30;;;22.00;83.60;;;;;;5118762;27;20138;-70
2023/07/16 00:42:19;;;;;;;3.60;2.15;;;22.00;83.60;;;;;;5100536;27;20047;-70
2023/07/16 00:44:46;;;;;;;4.90;2.53;;;22.00;83.40;;;;;;5099639;27;20054;-70
2023/07/16 00:47:13;;;;;;;3.78;2.40;;;22.00;83.60;;;;;;5098617;27;20402;-71
2023/07/16 00:49:41;;;;;;;5.75;2.38;;;21.90;83.80;;;;;;5119073;27;20056;-71
2023/07/16 00:52:15;;;;;;;4.30;2.63;;;21.90;83.60;;;;;;5119246;27;20040;-70
2023/07/16 00:54:42;;;;;;;4.47;2.60;;;22.00;83.80;;;;;;5119159;27;20164;-70
2023/07/16 00:57:09;;;;;;;3.88;2.20;;;21.90;83.80;;;;;;5119125;27;20047;-70
2023/07/16 00:59:36;;;;;;;4.30;2.22;;;21.90;83.90;;;;;;5118421;27;20044;-69
2023/07/16 01:02:03;;;;;;;6.15;2.25;;;21.80;83.70;;;;;;5120240;27;20047;-70
2023/07/16 01:04:30;;;;;;;3.92;2.33;;;21.90;83.50;;;;;;5115611;27;20047;-68
2023/07/16 01:07:01;;;;;;;3.90;2.28;;;21.90;83.60;;;;;;5116702;27;20055;-69
2023/07/16 01:09:30;;;;;;;4.15;2.40;;;21.80;83.80;;;;;;5115264;27;20075;-70
2023/07/16 01:11:58;;;;;;;2.92;1.85;;;21.90;83.60;;;;;;5094905;27;20597;-70
2023/07/16 01:14:26;;;;;;;4.13;2.28;;;21.80;83.80;;;;;;5119988;27;20050;-70
2023/07/16 01:16:58;;;;;;;3.55;2.22;;;21.80;83.60;;;;;;5117965;27;20040;-71
2023/07/16 01:19:25;;;;;;;3.92;2.10;;;21.80;83.90;;;;;;5118841;27;20052;-71
2023/07/16 01:22:03;;;;;;;3.67;2.15;;;21.80;84.00;;;;;;5121129;27;20046;-71
2023/07/16 01:25:00;;;;;;;7.57;2.45;;;21.80;83.70;;;;;;5112047;27;20047;-71
2023/07/16 01:28:00;;;;;;;5.97;2.40;;;21.90;82.90;;;;;;5119236;27;20123;-70
2023/07/16 01:30:29;;;;;;;3.17;2.20;;;21.80;82.40;;;;;;5118936;27;20051;-68
2023/07/16 01:32:57;;;;;;;3.20;2.05;;;21.80;81.90;;;;;;5100099;27;20058;-71
2023/07/16 01:35:26;;;;;;;3.83;1.98;;;21.80;81.60;;;;;;5119602;27;20075;-71
2023/07/16 01:37:53;;;;;;;4.05;2.13;;;21.70;81.50;;;;;;5100607;27;20043;-69
2023/07/16 01:40:20;;;;;;;3.75;1.83;;;21.60;81.20;;;;;;5120571;27;20054;-70
2023/07/16 01:42:47;;;;;;;2.35;1.70;;;21.70;80.50;;;;;;5115901;27;20126;-71
2023/07/16 01:45:14;;;;;;;2.38;1.38;;;21.60;79.90;;;;;;5118074;27;20063;-70
2023/07/16 01:47:54;;;;;;;3.53;1.85;;;21.60;79.50;;;;;;5116586;27;20062;-70
2023/07/16 01:50:21;;;;;;;2.42;1.48;;;21.60;79.30;;;;;;5118157;27;20048;-71
2023/07/16 01:52:48;;;;;;;2.85;1.40;;;21.50;79.60;;;;;;5114926;27;20559;-70
2023/07/16 01:55:15;;;;;;;2.67;1.38;;;21.40;79.50;;;;;;5118322;27;20043;-71
2023/07/16 01:57:42;;;;;;;2.90;1.60;;;21.40;79.60;;;;;;5116598;27;20055;-70
2023/07/16 02:00:10;;;;;;;3.50;1.60;;;21.40;79.30;;;;;;5092764;27;20047;-70
2023/07/16 02:02:47;;;;;;;3.05;1.52;;;21.40;79.20;;;;;;5119390;27;20529;-70
2023/07/16 02:05:15;;;;;;;3.03;1.50;;;21.30;79.50;;;;;;5118085;27;20043;-70
2023/07/16 02:07:42;;;;;;;3.20;1.55;;;21.40;79.50;;;;;;5109506;27;20065;-70
2023/07/16 02:10:09;;;;;;;3.03;1.42;;;21.40;79.40;;;;;;5111371;27;20051;-70
2023/07/16 02:12:36;;;;;;;2.40;1.42;;;21.40;79.30;;;;;;5117475;27;20051;-70
2023/07/16 02:15:04;;;;;;;3.20;1.75;;;21.30;79.50;;;;;;5117302;27;20084;-70
2023/07/16 02:17:37;;;;;;;3.47;1.50;;;21.30;80.10;;;;;;5093814;27;20044;-69
2023/07/16 02:20:07;;;;;;;3.47;1.93;;;21.20;80.30;;;;;;5117793;27;20054;-71
2023/07/16 02:22:34;;;;;;;;;;;21.30;80.40;;;;;;5098748;27;21018;-69
2023/07/16 02:25:02;;;;;;;3.28;1.60;;;21.20;80.70;;;;;;5118445;27;20293;-71
2023/07/16 02:27:29;;;;;;;2.75;1.70;;;21.30;80.90;;;;;;5117693;27;20600;-70
2023/07/16 02:29:56;;;;;;;2.67;1.67;;;21.30;80.70;;;;;;5099738;27;20061;-70
2023/07/16 02:32:23;;;;;;;2.28;1.48;;;21.20;81.10;;;;;;5116224;27;20047;-70
2023/07/16 02:34:50;;;;;;;3.47;1.90;;;21.20;81.20;;;;;;5120413;27;20051;-71
2023/07/16 02:37:18;;;;;;;3.22;1.80;;;21.30;81.10;;;;;;5117793;27;20049;-71
2023/07/16 02:39:47;;;;;;;3.08;1.73;;;21.30;81.00;;;;;;5119786;27;20466;-70
2023/07/16 02:42:15;;;;;;;6.20;1.98;;;21.20;81.40;;;;;;5119280;27;20082;-70
2023/07/16 02:44:44;;;;;;;3.33;1.85;;;21.10;82.00;;;;;;5116980;27;20044;-69
2023/07/16 02:47:12;;;;;;;3.10;1.67;;;21.10;81.60;;;;;;5099802;28;20082;-70
2023/07/16 02:49:39;;;;;;;4.88;1.95;;;21.20;81.30;;;;;;5116889;27;20046;-70
2023/07/16 02:52:07;;;;;;;3.63;1.50;;;21.20;81.30;;;;;;5113328;27;20054;-71
2023/07/16 02:54:36;;;;;;;4.68;1.63;;;21.10;81.20;;;;;;5113974;27;20058;-72
2023/07/16 02:57:04;;;;;;;4.38;1.88;;;21.10;80.80;;;;;;5115601;27;20043;-71
2023/07/16 02:59:31;;;;;;;2.80;1.60;;;21.10;80.50;;;;;;5090757;28;20062;-71
2023/07/16 03:01:58;;;;;;;4.18;2.05;;;21.10;80.60;;;;;;5095176;28;20051;-70
2023/07/16 03:04:25;;;;;;;3.67;1.58;;;21.10;80.30;;;;;;5099871;28;20050;-70
2023/07/16 03:06:53;;;;;;;3.47;1.70;;;21.10;80.30;;;;;;5116344;27;20058;-70
2023/07/16 03:09:20;;;;;;;5.90;1.55;;;21.10;80.10;;;;;;5112761;27;20043;-70
2023/07/16 03:11:48;;;;;;;4.90;1.80;;;21.00;80.10;;;;;;5117487;27;20130;-71
2023/07/16 03:14:16;;;;;;;5.40;1.70;;;21.10;80.10;;;;;;5117465;27;20054;-71
2023/07/16 03:16:43;;;;;;;4.93;2.30;;;21.00;80.20;;;;;;5097767;28;20044;-70
2023/07/16 03:19:10;;;;;;;3.78;1.67;;;21.00;80.30;;;;;;5098510;28;20047;-70
2023/07/16 03:21:37;;;;;;;4.30;1.67;;;21.00;80.20;;;;;;5116811;28;20054;-69
2023/07/16 03:24:05;;;;;;;2.80;1.40;;;21.00;80.00;;;;;;5091311;28;20052;-70
2023/07/16 03:26:32;;;;;;;4.68;1.80;;;20.90;80.20;;;;;;5116369;28;20108;-69
2023/07/16 03:29:00;;;;;;;3.10;1.70;;;20.90;80.00;;;;;;5117806;28;20103;-70
2023/07/16 03:31:28;;;;;;;6.20;2.10;;;21.00;79.80;;;;;;5100410;28;20055;-70
2023/07/16 03:33:55;;;;;;;5.95;1.80;;;20.90;79.70;;;;;;5099687;28;20055;-71
2023/07/16 03:36:24;;;;;;;5.10;1.83;;;20.90;79.60;;;;;;5101580;28;20082;-70
2023/07/16 03:38:51;;;;;;;3.65;1.48;;;20.90;79.40;;;;;;5113408;28;20046;-70
2023/07/16 03:41:18;;;;;;;3.88;1.63;;;20.90;79.60;;;;;;5114210;28;24474;-70
2023/07/16 03:43:46;;;;;;;4.05;1.70;;;20.90;79.30;;;;;;5116429;28;20051;-69
2023/07/16 03:46:19;;;;;;;2.45;1.77;;;20.80;79.90;;;;;;5090100;28;20049;-69
2023/07/16 03:48:46;;;;;;;5.63;1.80;;;20.80;79.80;;;;;;5090751;28;20126;-69
2023/07/16 03:51:13;;;;;;;3.50;1.70;;;20.80;79.50;;;;;;5098141;28;20051;-70
2023/07/16 03:53:40;;;;;;;3.38;1.60;;;20.80;79.30;;;;;;5111871;28;20070;-69
2023/07/16 03:56:14;;;;;;;4.72;1.92;;;20.80;79.40;;;;;;5100654;28;20051;-69
2023/07/16 03:58:41;;;;;;;3.35;1.80;;;20.80;79.60;;;;;;5113578;28;20054;-70
2023/07/16 04:01:09;;;;;;;6.00;1.98;;;20.70;79.40;;;;;;5089809;28;20055;-69
2023/07/16 04:03:37;;;;;;;5.68;2.00;;;20.80;79.20;;;;;;5113595;28;20116;-69
2023/07/16 04:06:05;;;;;;;;;;;20.70;79.40;;;;;;5096275;28;20043;-69
2023/07/16 04:08:33;;;;;;;6.35;1.80;;;20.60;79.80;;;;;;5096493;28;20401;-69
2023/07/16 04:10:59;;;;;;;4.97;2.05;;;20.60;79.30;;;;;;5115135;28;20490;-70
2023/07/16 04:13:26;;;;;;;5.78;2.08;;;20.60;79.60;;;;;;5113077;28;20055;-69
2023/07/16 04:15:54;;;;;;;3.60;1.80;;;20.60;79.40;;;;;;5113778;28;20453;-69
2023/07/16 04:18:22;;;;;;;3.58;1.85;;;20.60;79.20;;;;;;5115871;28;20039;-71
2023/07/16 04:20:50;;;;;;;4.00;1.90;;;20.70;79.10;;;;;;5114732;28;20074;-70
2023/07/16 04:23:17;;;;;;;3.45;1.80;;;20.60;79.40;;;;;;5119028;27;20050;-70
2023/07/16 04:25:44;;;;;;;6.95;2.00;;;20.60;79.50;;;;;;5119054;27;20051;-69
2023/07/16 04:28:11;;;;;;;3.90;1.63;;;20.60;79.20;;;;;;5119671;27;20050;-69
2023/07/16 04:30:42;;;;;;;3.25;1.73;;;20.70;79.00;;;;;;5120911;27;20050;-69
2023/07/16 04:33:09;;;;;;;4.50;1.88;;;20.60;79.10;;;;;;5115966;27;20044;-70
2023/07/16 04:35:36;;;;;;;5.93;1.77;;;20.60;79.20;;;;;;5121755;27;20486;-69
2023/07/16 04:38:04;;;;;;;5.00;2.10;;;20.60;79.10;;;;;;5120540;27;20051;-70
2023/07/16 04:40:31;;;;;;;3.72;1.88;;;20.60;79.20;;;;;;5119590;27;20134;-70
2023/07/16 04:42:58;;;;;;;3.95;1.52;;;20.50;79.30;;;;;;5120216;27;20043;-70
2023/07/16 04:45:25;;;;;;;4.80;1.80;;;20.50;79.20;;;;;;5115032;27;20055;-70
2023/07/16 04:47:52;;;;;;;2.75;1.45;;;20.60;79.20;;;;;;5115529;27;20426;-69
2023/07/16 04:50:19;;;;;;;5.07;1.83;;;20.40;79.70;;;;;;5118640;27;20500;-70
2023/07/16 04:52:46;;;;;;;4.78;1.85;;;20.50;79.00;;;;;;5107151;27;20490;-69
2023/07/16 04:55:14;;;;;;;3.92;1.63;;;20.60;78.90;;;;;;5117096;27;20051;-70
2023/07/16 04:57:41;;;;;;;5.90;1.98;;;20.60;79.00;;;;;;5117633;27;20102;-69
2023/07/16 05:00:09;;;;;;;5.53;1.60;;;20.60;79.10;;;;;;5120191;27;20138;-70
2023/07/16 05:02:35;;;;;;;3.70;1.80;;;20.60;78.70;;;;;;5119804;27;20063;-70
2023/07/16 05:05:03;;;;;;;4.22;1.77;;;20.60;78.70;;;;;;5116833;27;20046;-70
2023/07/16 05:07:30;;;;;;;3.85;2.00;;;20.50;79.20;;;;;;5117256;27;20047;-71
2023/07/16 05:09:57;;;;;;;4.65;1.98;;;20.50;78.80;;;;;;5117638;27;20047;-70
2023/07/16 05:12:25;;;;;;;5.25;2.00;;;20.60;79.00;;;;;;5119160;27;20055;-70
2023/07/16 05:14:52;;;;;;;3.53;1.60;;;20.50;78.80;;;;;;5119936;27;20126;-70
2023/07/16 05:17:19;;;;;;;5.95;2.10;;;20.50;78.30;;;;;;5117299;27;20044;-69
2023/07/16 05:19:46;;;;;;;7.28;2.10;;;20.50;78.30;;;;;;5119219;27;20055;-69
2023/07/16 05:22:13;;;;;;;5.40;2.40;;;20.50;78.20;;;;;;5117427;27;20544;-70
2023/07/16 05:24:40;;;;;;;6.55;2.13;;;20.60;77.70;;;;;;5117452;27;20036;-68
2023/07/16 05:27:07;;;;;;;4.22;2.05;;;20.50;77.90;;;;;;5119720;27;20055;-70
2023/07/16 05:29:35;;;;;;;5.78;2.30;;;20.50;77.70;;;;;;5119523;27;20047;-69
2023/07/16 05:32:02;;;;;;;4.40;1.92;;;20.60;77.70;;;;;;5117593;27;20044;-69
2023/07/16 05:34:29;;;;;;;4.95;2.03;;;20.50;77.00;;;;;;5112120;27;20066;-69
2023/07/16 05:36:56;;;;;;;5.15;2.00;;;20.60;76.30;;;;;;5119018;27;20076;-69
2023/07/16 05:39:23;;;;;;;4.88;2.22;;;20.60;76.60;;;;;;5117953;27;20044;-70
2023/07/16 05:41:50;;;;;;;5.57;2.17;;;20.60;76.70;;;;;;5118382;27;20047;-70
2023/07/16 05:44:17;;;;;;;3.65;1.88;;;20.60;76.80;;;;;;5116907;27;20050;-70
2023/07/16 05:46:45;;;;;;;5.78;1.80;;;20.60;76.40;;;;;;5116268;27;20507;-70
2023/07/16 05:49:12;;;;;;;3.80;1.88;;;20.60;76.10;;;;;;5119079;27;20051;-70
2023/07/16 05:51:39;;;;;;;3.70;1.88;;;20.60;76.40;;;;;;5117911;27;21238;-69
2023/07/16 05:54:06;;;;;;;3.63;1.95;;;20.60;76.20;;;;;;5118493;27;20063;-69
2023/07/16 05:56:33;;;;;;;4.22;2.15;;;20.60;76.50;;;;;;5117984;27;20039;-71
2023/07/16 05:59:00;;;;;;;4.63;2.00;;;20.70;76.00;;;;;;5119390;27;20045;-70
2023/07/16 06:01:27;;;;;;;4.53;2.20;;;20.70;76.20;;;;;;5115736;27;20051;-71
2023/07/16 06:03:56;;;;;;;7.07;2.00;;;20.70;75.90;;;;;;5114587;27;20039;-70
2023/07/16 06:06:23;;;;;;;4.05;1.80;;;20.60;75.50;;;;;;5118359;27;20078;-70
2023/07/16 06:08:50;;;;;;;6.40;1.85;;;20.70;75.40;;;;;;5118135;27;20076;-69
2023/07/16 06:11:17;;;;;;;3.65;1.63;;;20.80;74.80;;;;;;5117749;27;20051;-70
2023/07/16 06:13:43;;;;;;;4.32;1.92;;;20.80;74.50;;;;;;5113272;27;20066;-70
2023/07/16 06:16:10;;;;;;;5.05;1.90;;;20.80;74.50;;;;;;5116756;27;20039;-70
2023/07/16 06:18:37;;;;;;;5.22;2.08;;;20.80;74.70;;;;;;5117469;27;20044;-69
2023/07/16 06:21:05;;;;;;;5.43;2.13;;;20.90;74.40;;;;;;5116932;27;20058;-71
2023/07/16 06:23:32;;;;;;;3.92;1.90;;;20.90;74.00;;;;;;5113642;27;20054;-71
2023/07/16 06:25:59;;;;;;;5.78;2.03;;;20.80;73.80;;;;;;5117364;27;20389;-69
2023/07/16 06:28:26;;;;;;;5.50;2.17;;;20.80;73.70;;;;;;5117490;27;20050;-70
2023/07/16 06:30:53;;;;;;;5.95;1.90;;;20.90;73.60;;;;;;5116637;27;20078;-70
2023/07/16 06:33:20;;;;;;;4.45;2.10;;;20.90;73.30;;;;;;5116149;27;20051;-70
2023/07/16 06:35:47;;;;;;;5.82;1.70;;;20.90;72.80;;;;;;5115610;27;20470;-70
2023/07/16 06:38:16;;;;;;;5.53;2.03;;;20.80;72.60;;;;;;5117754;27;20055;-70
2023/07/16 06:40:48;;;;;;;5.07;2.10;;;20.80;72.60;;;;;;5115834;27;20039;-70
2023/07/16 06:43:15;;;;;;;6.00;2.00;;;20.90;72.60;;;;;;5115834;27;20069;-70
2023/07/16 06:45:42;;;;;;;4.70;1.70;;;21.00;72.60;;;;;;5118688;27;20039;-71
2023/07/16 06:48:09;;;;;;;5.05;2.17;;;21.10;72.00;;;;;;5115799;27;20052;-70
2023/07/16 06:50:36;;;;;;;5.43;2.00;;;21.10;71.80;;;;;;5118650;27;20039;-70
2023/07/16 06:53:03;;;;;;;5.00;1.80;;;21.20;71.30;;;;;;5107892;27;20047;-70
2023/07/16 06:55:31;;;;;;;6.20;2.13;;;21.20;71.10;;;;;;5116533;27;20053;-71
2023/07/16 06:57:58;;;;;;;4.28;1.85;;;21.20;70.90;;;;;;5112862;27;20098;-71
2023/07/16 07:00:25;;;;;;;5.18;2.17;;;21.40;70.50;;;;;;5118068;27;20070;-70
2023/07/16 07:02:52;;;;;;;7.30;2.17;;;21.30;69.70;;;;;;5116148;27;20069;-70
2023/07/16 07:05:18;;;;;;;6.45;2.08;;;21.50;69.30;;;;;;5117382;27;20046;-71
2023/07/16 07:07:45;;;;;;;4.45;1.73;;;21.60;69.10;;;;;;5114728;27;20047;-70
2023/07/16 07:10:12;;;;;;;5.78;2.00;;;21.70;68.70;;;;;;5116632;27;20073;-70
2023/07/16 07:12:41;;;;;;;7.60;1.90;;;21.70;68.10;;;;;;5115739;27;20486;-70
2023/07/16 07:15:09;;;;;;;5.38;2.05;;;21.60;67.50;;;;;;5117042;28;20050;-71
2023/07/16 07:17:36;;;;;;;5.10;2.25;;;21.60;67.80;;;;;;5118534;28;20057;-71
2023/07/16 07:20:04;;;;;;;5.57;2.08;;;21.80;67.40;;;;;;5115875;28;20043;-71
2023/07/16 07:22:31;;;;;;;5.82;2.30;;;21.90;66.60;;;;;;5118925;28;20047;-71
2023/07/16 07:24:58;;;;;;;4.40;2.20;;;22.10;65.60;;;;;;5116892;28;20047;-71
2023/07/16 07:27:25;;;;;;;4.32;2.00;;;22.20;65.00;;;;;;5116059;28;20048;-71
2023/07/16 07:29:55;;;;;;;7.03;2.20;;;22.10;64.60;;;;;;5118711;28;20054;-71
2023/07/16 07:32:23;;;;;;;6.78;2.40;;;22.20;63.90;;;;;;5118209;28;20406;-70
2023/07/16 07:34:50;;;;;;;4.70;2.30;;;22.30;63.60;;;;;;5114611;28;20414;-71
2023/07/16 07:37:17;;;;;;;4.97;2.13;;;22.40;63.40;;;;;;5116434;28;20054;-71
2023/07/16 07:39:51;;;;;;;6.90;2.28;;;22.30;63.20;;;;;;5118572;28;20051;-70
2023/07/16 07:42:29;;;;;;;;;;;;;;;;;;;;;
2023/07/16 07:45:01;;;;;;;5.70;2.03;;;22.40;63.20;;;;;;5116687;28;20061;-69
2023/07/16 07:47:28;;;;;;;4.45;2.00;;;22.30;62.70;;;;;;5114173;28;20126;-71
2023/07/16 07:49:55;;;;;;;5.97;2.28;;;22.40;62.50;;;;;;5116733;28;20055;-71
2023/07/16 07:52:22;;;;;;;5.88;2.33;;;22.40;62.20;;;;;;5116813;28;20759;-71
2023/07/16 07:54:50;;;;;;;5.10;2.10;;;22.30;62.20;;;;;;5116824;28;20043;-71
2023/07/16 07:57:16;;;;;;;4.70;1.98;;;22.40;61.60;;;;;;5117537;27;20043;-68
2023/07/16 07:59:43;;;;;;;5.00;2.45;;;22.30;60.80;;;;;;5115834;27;20042;-70
2023/07/16 08:02:12;;;;;;;8.15;2.42;;;22.40;60.10;;;;;;5120472;27;20039;-69
2023/07/16 08:04:38;;;;;;;5.95;2.22;;;22.30;60.10;;;;;;5119924;27;20126;-69
2023/07/16 08:07:06;;;;;;;7.57;2.35;;;22.30;59.90;;;;;;5121299;27;20035;-70
2023/07/16 08:09:33;;;;;;;6.32;2.53;;;22.50;59.70;;;;;;5122366;27;20047;-70
2023/07/16 08:12:00;;;;;;;5.30;2.40;;;22.60;59.60;;;;;;5122290;27;20057;-69
2023/07/16 08:14:27;;;;;;;6.93;2.67;;;22.60;58.80;;;;;;5119388;27;20047;-70
2023/07/16 08:16:54;;;;;;;4.38;2.30;;;22.60;58.90;;;;;;5121432;27;20065;-70
2023/07/16 08:19:22;;;;;;;5.13;2.30;;;22.80;57.80;;;;;;5120304;27;20066;-71
2023/07/16 08:21:49;;;;;;;5.80;2.50;;;22.90;57.70;;;;;;5117740;27;20103;-71
2023/07/16 08:24:16;;;;;;;5.97;2.50;;;22.90;57.50;;;;;;5121359;27;20145;-71
2023/07/16 08:26:43;;;;;;;6.03;2.90;;;22.90;57.90;;;;;;5120546;27;20051;-70
2023/07/16 08:29:09;;;;;;;8.50;2.63;;;23.20;57.20;;;;;;5122050;27;20043;-70
2023/07/16 08:31:36;;;;;;;6.38;2.40;;;23.40;57.10;;;;;;5122318;27;20074;-70
2023/07/16 08:34:03;;;;;;;6.25;2.80;;;23.40;56.30;;;;;;5121950;27;20043;-70
2023/07/16 08:36:32;;;;;;;7.60;2.47;;;23.40;56.50;;;;;;5121993;27;20150;-69
2023/07/16 08:38:59;;;;;;;5.77;2.40;;;23.30;56.50;;;;;;5117917;27;20044;-71
2023/07/16 08:41:26;;;;;;;5.25;2.22;;;23.50;56.00;;;;;;5121383;27;20047;-70
2023/07/16 08:43:54;;;;;;;5.07;2.33;;;23.60;55.60;;;;;;5120403;27;20051;-70
2023/07/16 08:46:21;;;;;;;7.55;2.30;;;23.80;54.80;;;;;;5120330;27;20050;-71
2023/07/16 08:48:49;;;;;;;5.22;2.33;;;24.00;54.10;;;;;;5120849;27;20056;-71
2023/07/16 08:51:17;;;;;;;7.05;2.17;;;24.00;53.40;;;;;;5122257;27;20036;-71
2023/07/16 08:53:45;;;;;;;8.65;2.28;;;24.00;53.40;;;;;;5117165;27;20031;-68
2023/07/16 08:56:12;;;;;;;5.65;2.33;;;24.30;53.40;;;;;;5120289;27;20047;-71
2023/07/16 08:58:40;;;;;;;5.63;2.28;;;24.20;52.80;;;;;;5119648;27;20135;-70
2023/07/16 09:01:07;;;;;;;7.10;2.60;;;24.40;52.70;;;;;;5120478;27;20053;-70
2023/07/16 09:03:34;;;;;;;6.82;3.28;;;24.50;52.00;;;;;;5119837;27;20048;-70
2023/07/16 09:06:01;;;;;;;6.13;3.33;;;24.60;51.70;;;;;;5120076;27;20051;-69
2023/07/16 09:08:29;;;;;;;6.47;3.28;;;24.60;50.90;;;;;;5122851;27;20054;-69
2023/07/16 09:10:58;;;;;;;6.43;2.65;;;24.60;50.60;;;;;;5116016;27;20093;-70
2023/07/16 09:13:26;;;;;;;6.45;2.60;;;24.70;50.20;;;;;;5119349;27;20096;-70
2023/07/16 09:15:54;;;;;;;7.95;2.33;;;24.60;50.50;;;;;;5118759;27;20047;-70
2023/07/16 09:18:22;;;;;;;7.65;2.50;;;24.50;50.70;;;;;;5120086;27;20058;-70
2023/07/16 09:20:49;;;;;;;7.18;2.45;;;24.60;50.40;;;;;;5120331;27;20039;-70
2023/07/16 09:23:18;;;;;;;6.30;2.47;;;24.60;50.10;;;;;;5119644;27;20048;-70
2023/07/16 09:25:45;;;;;;;4.55;2.45;;;24.40;50.40;;;;;;5119085;27;20057;-70
2023/07/16 09:28:13;;;;;;;5.30;2.17;;;24.50;49.90;;;;;;5120602;27;20058;-70
2023/07/16 09:30:40;;;;;;;6.97;2.65;;;24.50;49.20;;;;;;5119633;27;20079;-70
2023/07/16 09:33:15;;;;;;;5.57;2.33;;;24.60;48.70;;;;;;5120559;27;20047;-69
2023/07/16 09:35:42;;;;;;;5.72;2.33;;;24.70;49.00;;;;;;5119633;27;20040;-69
2023/07/16 09:38:10;;;;;;;4.75;2.55;;;25.00;48.80;;;;;;5120484;27;20703;-70
2023/07/16 09:40:37;;;;;;;6.15;2.60;;;25.20;49.10;;;;;;5119393;27;20054;-67
2023/07/16 09:43:06;;;;;;;5.95;2.38;;;25.30;48.70;;;;;;5118597;27;20443;-69
2023/07/16 09:45:35;;;;;;;6.05;2.28;;;25.30;47.60;;;;;;5116678;27;20166;-70
2023/07/16 09:48:02;;;;;;;5.75;2.55;;;25.30;47.60;;;;;;5117574;27;20104;-70
2023/07/16 09:50:30;;;;;;;4.78;2.22;;;25.30;47.90;;;;;;5121175;27;20049;-68
2023/07/16 09:52:58;;;;;;;6.97;3.10;;;25.20;48.20;;;;;;5119539;27;20131;-70
2023/07/16 09:55:26;;;;;;;6.25;2.42;;;25.10;48.50;;;;;;5121253;27;20045;-70
2023/07/16 09:58:24;;;;;;;4.40;2.15;;;24.90;48.10;;;;;;5118341;27;20055;-69
2023/07/16 10:00:52;;;;;;;7.72;2.42;;;25.10;48.10;;;;;;5117216;27;20130;-70
2023/07/16 10:03:35;;;;;;;3.88;1.98;;;25.30;47.60;;;;;;5121065;27;20038;-69
2023/07/16 10:06:08;;;;;;;5.95;2.38;;;25.20;47.10;;;;;;5118007;27;20114;-70
2023/07/16 10:08:39;;;;;;;6.05;2.30;;;25.40;46.80;;;;;;5122236;27;20342;-71
2023/07/16 10:11:20;;;;;;;7.85;2.35;;;25.60;46.60;;;;;;5105391;27;20165;-70
2023/07/16 10:13:51;;;;;;;7.55;3.95;;;25.60;46.30;;;;;;5105946;27;20055;-70
2023/07/16 10:16:27;;;;;;;9.65;5.70;;;25.80;46.60;;;;;;5122548;27;20047;-69
2023/07/16 10:19:00;;;;;;;7.78;4.25;;;26.00;46.80;;;;;;5118006;27;20047;-69
2023/07/16 10:21:27;;;;;;;6.10;2.63;;;26.20;45.50;;;;;;5120090;27;20071;-69
2023/07/16 10:23:59;;;;;;;4.18;2.10;;;26.10;44.10;;;;;;5116494;27;20049;-68
2023/07/16 10:26:29;;;;;;;5.68;2.38;;;26.10;44.10;;;;;;5119188;27;20043;-70
2023/07/16 10:28:56;;;;;;;3.88;2.00;;;26.30;44.10;;;;;;5118070;27;20055;-68
2023/07/16 10:31:26;;;;;;;4.60;2.25;;;26.40;44.00;;;;;;5119921;27;20092;-68
2023/07/16 10:34:01;;;;;;;;;;;26.50;43.40;;;;;;5120740;27;20051;-69
2023/07/16 10:36:29;;;;;;;6.70;2.80;;;26.60;43.80;;;;;;5119790;27;19927;-70
2023/07/16 10:39:02;;;;;;;5.80;2.42;;;26.80;43.40;;;;;;5120011;27;20058;-70
2023/07/16 10:41:29;;;;;;;3.58;2.10;;;26.90;42.80;;;;;;5120336;27;20043;-69
2023/07/16 10:43:57;;;;;;;5.97;2.13;;;27.00;41.60;;;;;;5097019;27;20065;-69
2023/07/16 10:46:27;;;;;;;4.65;2.05;;;26.90;41.30;;;;;;5117715;27;20046;-69
2023/07/16 10:48:54;;;;;;;3.83;2.20;;;27.00;41.50;;;;;;5118223;27;20127;-70
2023/07/16 10:51:26;;;;;;;4.97;2.40;;;27.00;42.10;;;;;;5116764;27;20050;-69
2023/07/16 10:53:56;;;;;;;5.88;2.50;;;27.10;42.40;;;;;;5118985;27;20054;-70
2023/07/16 10:56:23;;;;;;;8.50;2.30;;;27.30;42.20;;;;;;5118904;27;20055;-71
2023/07/16 10:58:50;;;;;;;6.47;2.30;;;27.40;41.20;;;;;;5118649;27;20047;-70
2023/07/16 11:01:18;;;;;;;5.82;2.08;;;27.20;40.70;;;;;;5118872;27;20133;-71
2023/07/16 11:03:46;;;;;;;6.57;2.60;;;27.30;41.10;;;;;;5114943;27;20038;-70
2023/07/16 11:06:13;;;;;;;6.43;2.17;;;27.50;40.70;;;;;;5115708;27;20058;-70
2023/07/16 11:08:40;;;;;;;5.20;2.10;;;27.60;40.30;;;;;;5114200;27;20468;-70
2023/07/16 11:11:07;;;;;;;5.00;1.85;;;27.70;40.30;;;;;;5117532;27;20062;-70
2023/07/16 11:13:35;;;;;;;4.72;1.85;;;27.60;39.80;;;;;;5115814;27;20097;-70
2023/07/16 11:16:08;;;;;;;6.07;2.17;;;27.70;39.60;;;;;;5120603;27;20044;-69
2023/07/16 11:18:35;;;;;;;5.80;2.42;;;27.70;39.40;;;;;;5118973;28;20050;-70
2023/07/16 11:21:04;;;;;;;4.57;1.90;;;27.60;39.40;;;;;;5118416;28;20054;-71
2023/07/16 11:23:34;;;;;;;4.47;2.00;;;27.60;39.50;;;;;;5118629;28;20199;-71
2023/07/16 11:26:03;;;;;;;6.32;2.28;;;27.80;39.10;;;;;;5118542;28;20054;-71
2023/07/16 11:28:37;;;;;;;5.18;2.08;;;27.60;39.40;;;;;;5119866;28;20490;-70
2023/07/16 11:31:11;;;;;;;5.13;2.22;;;27.50;39.20;;;;;;5118336;28;20409;-71
2023/07/16 11:33:38;;;;;;;5.43;2.22;;;27.50;39.30;;;;;;5117452;27;20054;-68
2023/07/16 11:36:06;;;;;;;5.65;2.40;;;27.60;39.70;;;;;;5122533;27;20112;-70
2023/07/16 11:38:37;;;;;;;5.93;2.20;;;27.80;39.30;;;;;;5117187;27;20062;-71
2023/07/16 11:41:04;;;;;;;3.10;1.85;;;27.90;39.40;;;;;;5107980;27;20051;-71
2023/07/16 11:43:36;;;;;;;5.38;1.98;;;28.00;39.10;;;;;;5122284;27;20047;-72
2023/07/16 11:46:03;;;;;;;5.05;2.10;;;28.10;38.60;;;;;;5118613;27;20075;-71
2023/07/16 11:48:30;;;;;;;3.28;1.73;;;28.10;37.20;;;;;;5111107;27;20065;-69
2023/07/16 11:50:57;;;;;;;5.25;2.15;;;28.10;36.90;;;;;;5119868;27;20104;-70
2023/07/16 11:53:25;;;;;;;4.70;2.00;;;28.10;37.30;;;;;;5121361;27;20047;-70
2023/07/16 11:55:52;;;;;;;5.67;2.07;;;28.10;37.40;;;;;;5118950;27;20036;-70
2023/07/16 11:58:18;;;;;;;4.25;2.17;;;28.10;37.70;;;;;;5120333;27;20456;-70
2023/07/16 12:00:46;;;;;;;8.07;2.20;;;28.20;37.40;;;;;;5120855;27;20047;-70
2023/07/16 12:03:12;;;;;;;3.72;1.88;;;28.20;37.50;;;;;;5116608;27;20066;-71
2023/07/16 12:05:39;;;;;;;4.47;2.17;;;28.30;36.90;;;;;;5119664;27;20683;-70
2023/07/16 12:08:13;;;;;;;3.80;2.03;;;28.30;36.70;;;;;;5119855;27;20378;-72
2023/07/16 12:10:41;;;;;;;3.97;1.92;;;28.20;35.90;;;;;;5118372;27;20051;-71
2023/07/16 12:13:08;;;;;;;4.13;1.98;;;28.20;36.00;;;;;;5120264;27;20039;-72
2023/07/16 12:15:35;;;;;;;4.53;1.95;;;28.10;36.10;;;;;;5118777;27;20040;-72
2023/07/16 12:18:02;;;;;;;4.78;1.90;;;28.10;36.00;;;;;;5115373;27;20515;-72
2023/07/16 12:20:29;;;;;;;4.75;1.98;;;28.10;36.70;;;;;;5119421;27;20074;-73
2023/07/16 12:22:56;;;;;;;6.22;2.30;;;28.10;36.80;;;;;;5119065;27;20052;-72
2023/07/16 12:25:23;;;;;;;3.70;2.00;;;28.00;36.60;;;;;;5116033;27;20409;-71
2023/07/16 12:27:51;;;;;;;4.70;2.30;;;28.00;36.40;;;;;;5113268;27;20052;-71
2023/07/16 12:30:18;;;;;;;5.37;2.30;;;28.00;36.60;;;;;;5114696;27;20039;-70
2023/07/16 12:32:45;;;;;;;4.72;2.10;;;28.00;37.00;;;;;;5109501;27;20457;-72
2023/07/16 12:35:12;;;;;;;4.80;2.25;;;28.10;36.60;;;;;;5117636;27;20048;-71
2023/07/16 12:37:39;;;;;;;5.63;2.28;;;28.10;36.40;;;;;;5113292;27;20131;-71
2023/07/16 12:40:08;;;;;;;6.20;2.38;;;28.20;35.70;;;;;;5120730;27;20466;-72
2023/07/16 12:42:35;;;;;;;4.60;2.38;;;28.10;35.90;;;;;;5118500;27;20152;-71
2023/07/16 12:45:04;;;;;;;5.20;2.00;;;28.00;35.90;;;;;;5116227;27;20062;-71
2023/07/16 12:47:31;;;;;;;3.67;1.88;;;28.00;35.90;;;;;;5115377;27;20397;-71
2023/07/16 12:49:58;;;;;;;3.78;2.05;;;27.70;35.80;;;;;;5119277;27;20039;-72
2023/07/16 12:52:25;;;;;;;4.75;2.25;;;27.60;36.30;;;;;;5119603;27;20051;-71